createdAt,value
2019-01-22T00:00:51.299Z,91.40
2019-01-22T00:03:20.658Z,91.50
2019-01-22T00:05:50.038Z,91.40
2019-01-22T00:08:19.396Z,91.80
2019-01-22T00:10:48.824Z,91.70
2019-01-22T00:13:18.112Z,91.90
2019-01-22T00:15:47.471Z,91.80
2019-01-22T00:18:16.800Z,92.10
2019-01-22T00:20:46.161Z,91.90
2019-01-22T00:23:15.481Z,92.50
2019-01-22T00:25:44.834Z,92.10
2019-01-22T00:28:14.096Z,91.80
2019-01-22T00:30:43.493Z,91.90
2019-01-22T00:33:12.839Z,92.10
2019-01-22T00:35:42.209Z,92.50
2019-01-22T00:38:11.936Z,92.00
2019-01-22T00:40:41.283Z,92.00
2019-01-22T00:43:10.657Z,91.70
2019-01-22T00:45:40.025Z,92.00
2019-01-22T00:48:09.375Z,91.90
2019-01-22T00:50:38.747Z,92.30
2019-01-22T00:53:10.166Z,92.40
2019-01-22T00:55:39.054Z,93.00
2019-01-22T00:58:08.335Z,92.40
2019-01-22T01:00:37.714Z,92.10
2019-01-22T01:03:07.054Z,92.40
2019-01-22T01:05:36.355Z,92.40
2019-01-22T01:08:05.996Z,93.20
2019-01-22T01:10:35.467Z,92.70
2019-01-22T01:13:05.338Z,92.50
2019-01-22T01:15:34.688Z,92.50
2019-01-22T01:18:04.630Z,92.40
2019-01-22T01:20:34.024Z,92.30
2019-01-22T01:23:03.283Z,92.20
2019-01-22T01:25:32.734Z,92.20
2019-01-22T01:28:02.118Z,92.20
2019-01-22T01:30:31.480Z,92.20
2019-01-22T01:33:00.831Z,92.30
2019-01-22T01:35:30.207Z,92.60
2019-01-22T01:37:59.547Z,92.70
2019-01-22T01:40:28.916Z,93.00
2019-01-22T01:42:58.283Z,92.60
2019-01-22T01:45:27.939Z,92.70
2019-01-22T01:47:57.277Z,92.80
2019-01-22T01:50:27.028Z,92.70
2019-01-22T01:52:56.383Z,92.80
2019-01-22T01:55:25.837Z,92.70
2019-01-22T01:57:55.193Z,92.80
2019-01-22T02:00:23.912Z,93.00
2019-01-22T02:02:53.327Z,93.10
2019-01-22T02:05:22.675Z,93.40
2019-01-22T02:07:52.078Z,93.50
2019-01-22T02:10:23.605Z,93.30
2019-01-22T02:12:58.645Z,93.20
2019-01-22T02:15:35.654Z,93.20
2019-01-22T02:18:26.040Z,93.30
2019-01-22T02:21:51.676Z,93.30
2019-01-22T02:24:52.732Z,93.50
2019-01-22T02:27:59.493Z,93.60
2019-01-22T02:31:15.226Z,93.50
2019-01-22T02:34:26.861Z,93.60
2019-01-22T02:37:33.787Z,93.80
2019-01-22T02:40:15.373Z,93.60
2019-01-22T02:43:13.091Z,93.60
2019-01-22T02:46:18.399Z,93.60
2019-01-22T02:49:28.189Z,93.50
2019-01-22T02:52:18.127Z,93.80
2019-01-22T02:55:00.890Z,94.00
2019-01-22T02:58:15.992Z,94.30
2019-01-22T03:01:28.052Z,94.70
2019-01-22T03:04:27.922Z,94.80
2019-01-22T03:07:17.945Z,94.90
2019-01-22T03:10:34.840Z,95.10
2019-01-22T03:13:42.819Z,95.40
2019-01-22T03:16:57.406Z,95.50
2019-01-22T03:20:26.341Z,95.40
2019-01-22T03:23:33.263Z,95.40
2019-01-22T03:26:25.558Z,95.50
2019-01-22T03:29:32.951Z,95.60
2019-01-22T03:32:21.144Z,95.70
2019-01-22T03:35:39.759Z,95.70
2019-01-22T03:38:26.202Z,95.50
2019-01-22T03:41:32.164Z,95.80
2019-01-22T03:44:35.552Z,96.10
2019-01-22T03:47:36.849Z,96.00
2019-01-22T03:50:22.423Z,96.20
2019-01-22T03:53:13.079Z,96.70
2019-01-22T03:56:19.586Z,96.60
2019-01-22T03:58:48.917Z,96.50
2019-01-22T04:01:22.259Z,96.80
2019-01-22T04:03:51.603Z,97.20
2019-01-22T04:06:51.953Z,97.40
2019-01-22T04:09:26.250Z,97.20
2019-01-22T04:11:55.660Z,97.40
2019-01-22T04:14:25.052Z,97.50
2019-01-22T04:16:54.597Z,97.70
2019-01-22T04:19:27.189Z,97.50
2019-01-22T04:21:56.627Z,97.80
2019-01-22T04:24:50.042Z,97.60
2019-01-22T04:27:56.206Z,97.70
2019-01-22T04:30:55.539Z,97.60
2019-01-22T04:34:12.998Z,97.60
2019-01-22T04:37:30.573Z,97.30
2019-01-22T04:40:20.594Z,97.10
2019-01-22T04:43:14.256Z,96.80
2019-01-22T04:45:58.298Z,97.20
2019-01-22T04:48:54.008Z,97.40
2019-01-22T04:51:54.805Z,97.30
2019-01-22T04:54:51.682Z,97.20
2019-01-22T04:57:52.955Z,97.30
2019-01-22T05:00:52.501Z,97.20
2019-01-22T05:04:12.080Z,97.20
2019-01-22T05:07:18.267Z,97.20
2019-01-22T05:10:14.784Z,97.10
2019-01-22T05:13:14.227Z,97.10
2019-01-22T05:16:16.399Z,97.00
2019-01-22T05:19:22.703Z,96.90
2019-01-22T05:22:33.531Z,97.00
2019-01-22T05:25:34.352Z,97.00
2019-01-22T05:28:41.258Z,96.90
2019-01-22T05:31:35.736Z,97.40
2019-01-22T05:34:43.290Z,97.60
2019-01-22T05:37:44.039Z,97.80
2019-01-22T05:41:09.594Z,98.80
2019-01-22T05:44:16.059Z,99.20
2019-01-22T05:47:31.403Z,99.50
2019-01-22T05:50:50.903Z,99.20
2019-01-22T05:53:41.029Z,98.90
2019-01-22T05:56:46.509Z,99.60
2019-01-22T06:00:00.714Z,99.80
2019-01-22T06:02:45.792Z,99.80
2019-01-22T06:05:59.909Z,99.40
2019-01-22T06:08:58.617Z,99.10
2019-01-22T06:11:52.233Z,99.10
2019-01-22T06:15:05.703Z,98.80
2019-01-22T06:18:16.964Z,99.10
2019-01-22T06:21:06.383Z,99.20
2019-01-22T06:24:20.659Z,99.10
2019-01-22T06:27:14.486Z,99.40
2019-01-22T06:30:05.814Z,99.00
2019-01-22T06:32:49.191Z,98.50
2019-01-22T06:35:32.902Z,98.20
2019-01-22T06:38:34.698Z,98.10
2019-01-22T06:41:20.098Z,98.10
2019-01-22T06:44:29.796Z,98.20
2019-01-22T06:47:10.328Z,98.60
2019-01-22T06:50:01.338Z,98.80
2019-01-22T06:53:25.404Z,99.30
2019-01-22T06:56:49.470Z,99.40
2019-01-22T06:59:38.942Z,99.00
2019-01-22T07:02:31.804Z,99.20
2019-01-22T07:05:16.917Z,99.10
2019-01-22T07:08:25.611Z,99.10
2019-01-22T07:11:36.179Z,98.70
2019-01-22T07:14:25.831Z,98.70
2019-01-22T07:17:09.086Z,99.00
2019-01-22T07:19:58.894Z,99.30
2019-01-22T07:22:50.731Z,99.30
2019-01-22T07:26:10.133Z,99.40
2019-01-22T07:28:56.032Z,99.60
2019-01-22T07:31:41.963Z,99.70
2019-01-22T07:34:57.256Z,99.90
2019-01-22T07:38:03.559Z,99.90
2019-01-22T07:41:15.924Z,99.90
2019-01-22T07:44:41.464Z,99.90
2019-01-22T07:47:34.582Z,99.90
2019-01-22T07:50:38.579Z,99.90
2019-01-22T07:53:32.776Z,99.90
2019-01-22T07:56:34.036Z,99.90
2019-01-22T07:59:32.699Z,99.90
2019-01-22T08:02:50.934Z,99.90
2019-01-22T08:05:58.253Z,99.90
2019-01-22T08:09:02.020Z,99.90
2019-01-22T08:12:27.536Z,99.90
2019-01-22T08:15:45.979Z,99.90
2019-01-22T08:18:51.216Z,99.90
2019-01-22T08:21:37.613Z,99.90
2019-01-22T08:24:48.385Z,99.90
2019-01-22T08:27:33.281Z,99.90
2019-01-22T08:30:38.103Z,99.90
2019-01-22T08:33:37.009Z,99.90
2019-01-22T08:36:53.479Z,99.90
2019-01-22T08:39:55.026Z,99.90
2019-01-22T08:43:18.321Z,99.90
2019-01-22T08:46:38.000Z,99.90
2019-01-22T08:50:01.934Z,99.90
2019-01-22T08:52:42.852Z,99.90
2019-01-22T08:55:58.167Z,99.90
2019-01-22T08:59:02.018Z,99.90
2019-01-22T09:02:22.297Z,99.90
2019-01-22T09:05:15.116Z,99.90
2019-01-22T09:08:24.726Z,99.90
2019-01-22T09:11:44.271Z,99.90
2019-01-22T09:14:37.981Z,99.90
2019-01-22T09:17:30.110Z,99.70
2019-01-22T09:20:41.984Z,99.70
2019-01-22T09:23:53.061Z,99.80
2019-01-22T09:26:34.776Z,99.60
2019-01-22T09:29:40.940Z,99.90
2019-01-22T09:32:36.735Z,99.90
2019-01-22T09:35:47.245Z,99.00
2019-01-22T09:38:16.656Z,99.20
2019-01-22T09:40:45.966Z,99.30
2019-01-22T09:43:15.298Z,99.40
2019-01-22T09:45:44.655Z,99.40
2019-01-22T09:48:13.928Z,99.80
2019-01-22T09:50:43.523Z,99.90
2019-01-22T09:53:12.879Z,99.90
2019-01-22T09:55:42.178Z,99.90
2019-01-22T09:58:11.477Z,99.80
2019-01-22T10:00:40.967Z,99.90
2019-01-22T10:03:13.258Z,99.90
2019-01-22T10:05:42.895Z,99.90
2019-01-22T10:08:12.487Z,99.90
2019-01-22T10:10:41.864Z,99.80
2019-01-22T10:13:11.217Z,99.90
2019-01-22T10:15:43.522Z,99.90
2019-01-22T10:18:13.124Z,99.90
2019-01-22T10:20:42.664Z,99.70
2019-01-22T10:23:14.089Z,99.30
2019-01-22T10:25:43.785Z,99.20
2019-01-22T10:28:13.094Z,99.50
2019-01-22T10:30:42.987Z,99.50
2019-01-22T10:33:13.215Z,99.50
2019-01-22T10:35:44.984Z,99.30
2019-01-22T10:38:21.283Z,99.50
2019-01-22T10:40:55.458Z,99.70
2019-01-22T10:43:31.963Z,99.70
2019-01-22T10:46:02.816Z,99.70
2019-01-22T10:48:34.978Z,99.90
2019-01-22T10:51:05.872Z,99.90
2019-01-22T10:53:39.144Z,99.90
2019-01-22T10:56:21.611Z,99.90
2019-01-22T10:58:52.866Z,99.90
2019-01-22T11:01:23.923Z,99.90
2019-01-22T11:03:55.539Z,99.50
2019-01-22T11:06:27.218Z,99.80
2019-01-22T11:08:57.086Z,99.90
2019-01-22T11:11:26.806Z,99.90
2019-01-22T11:13:57.263Z,99.90
2019-01-22T11:16:29.333Z,99.90
2019-01-22T11:18:59.879Z,99.90
2019-01-22T11:21:33.015Z,99.60
2019-01-22T11:24:04.258Z,99.70
2019-01-22T11:26:38.474Z,99.70
2019-01-22T11:29:10.968Z,99.60
2019-01-22T11:31:43.084Z,99.50
2019-01-22T11:34:17.503Z,99.40
2019-01-22T11:36:53.815Z,99.20
2019-01-22T11:39:33.972Z,98.80
2019-01-22T11:42:07.426Z,98.90
2019-01-22T11:44:43.221Z,99.10
2019-01-22T11:47:18.341Z,99.20
2019-01-22T11:49:53.857Z,99.40
2019-01-22T11:52:26.560Z,99.40
2019-01-22T11:54:59.577Z,99.30
2019-01-22T11:57:36.708Z,99.10
2019-01-22T12:00:14.268Z,99.00
2019-01-22T12:02:47.187Z,98.80
2019-01-22T12:05:18.122Z,99.10
2019-01-22T12:07:55.420Z,99.10
2019-01-22T12:10:25.422Z,98.90
2019-01-22T12:12:58.347Z,98.90
2019-01-22T12:15:28.942Z,98.80
2019-01-22T12:18:01.764Z,98.80
2019-01-22T12:20:37.705Z,99.10
2019-01-22T12:23:07.832Z,98.70
2019-01-22T12:25:37.492Z,98.80
2019-01-22T12:28:07.565Z,99.10
2019-01-22T12:30:37.993Z,98.90
2019-01-22T12:33:09.110Z,99.00
2019-01-22T12:35:38.881Z,99.10
2019-01-22T12:38:11.727Z,99.10
2019-01-22T12:40:47.701Z,98.40
2019-01-22T12:43:18.414Z,98.50
2019-01-22T12:45:48.902Z,98.30
2019-01-22T12:48:20.806Z,98.20
2019-01-22T12:50:51.169Z,98.00
2019-01-22T12:53:27.718Z,98.00
2019-01-22T12:56:04.495Z,98.40
2019-01-22T12:58:32.390Z,98.10
2019-01-22T13:01:08.784Z,97.80
2019-01-22T13:03:43.323Z,97.90
2019-01-22T13:06:16.050Z,98.40
2019-01-22T13:08:50.586Z,98.50
2019-01-22T13:11:21.377Z,98.30
2019-01-22T13:13:51.439Z,98.30
2019-01-22T13:16:20.945Z,98.40
2019-01-22T13:18:50.476Z,98.50
2019-01-22T13:21:20.740Z,98.20
2019-01-22T13:23:52.944Z,98.40
2019-01-22T13:26:26.606Z,98.50
2019-01-22T13:28:58.437Z,98.60
2019-01-22T13:31:32.550Z,98.40
2019-01-22T13:34:04.263Z,98.30
2019-01-22T13:36:37.781Z,98.80
2019-01-22T13:39:15.960Z,98.70
2019-01-22T13:42:00.606Z,98.60
2019-01-22T13:44:34.542Z,98.50
2019-01-22T13:47:07.607Z,98.40
2019-01-22T13:49:42.411Z,98.60
2019-01-22T13:52:13.260Z,98.80
2019-01-22T13:54:46.705Z,98.70
2019-01-22T13:57:17.648Z,99.10
2019-01-22T13:59:48.929Z,99.10
2019-01-22T14:02:19.447Z,98.60
2019-01-22T14:04:53.548Z,98.70
2019-01-22T14:07:27.676Z,98.70
2019-01-22T14:09:59.391Z,98.70
2019-01-22T14:12:31.823Z,99.00
2019-01-22T14:15:06.130Z,98.40
2019-01-22T14:17:40.603Z,98.90
2019-01-22T14:20:14.211Z,98.90
2019-01-22T14:22:46.029Z,98.80
2019-01-22T14:25:17.253Z,98.80
2019-01-22T14:27:53.548Z,99.00
2019-01-22T14:30:29.846Z,99.00
2019-01-22T14:33:00.851Z,98.80
2019-01-22T14:35:34.381Z,98.80
2019-01-22T14:38:05.421Z,98.60
2019-01-22T14:40:38.917Z,98.50
2019-01-22T14:43:09.671Z,98.50
2019-01-22T14:45:42.172Z,98.80
2019-01-22T14:48:11.628Z,98.80
2019-01-22T14:50:41.145Z,98.90
2019-01-22T14:53:10.534Z,98.70
2019-01-22T14:55:40.051Z,98.70
2019-01-22T14:58:09.449Z,98.70
2019-01-22T15:00:38.931Z,98.80
2019-01-22T15:03:08.437Z,98.70
2019-01-22T15:05:37.886Z,98.80
2019-01-22T15:08:07.419Z,98.80
2019-01-22T15:10:37.013Z,98.70
2019-01-22T15:13:06.705Z,98.30
2019-01-22T15:15:36.005Z,98.60
2019-01-22T15:18:05.957Z,98.80
2019-01-22T15:20:35.537Z,98.80
2019-01-22T15:23:04.938Z,98.80
2019-01-22T15:25:34.663Z,99.00
2019-01-22T15:28:04.155Z,99.20
2019-01-22T15:30:36.078Z,99.20
2019-01-22T15:33:06.683Z,99.00
2019-01-22T15:35:36.154Z,99.00
2019-01-22T15:38:06.046Z,98.90
2019-01-22T15:40:35.999Z,98.80
2019-01-22T15:43:05.543Z,98.90
2019-01-22T15:45:35.114Z,98.80
2019-01-22T15:48:05.197Z,98.90
2019-01-22T15:50:34.650Z,98.80
2019-01-22T15:53:04.069Z,98.50
2019-01-22T15:55:37.009Z,98.50
2019-01-22T15:58:07.235Z,98.70
2019-01-22T16:00:36.558Z,98.70
2019-01-22T16:03:06.475Z,98.70
2019-01-22T16:05:36.108Z,98.60
2019-01-22T16:08:06.646Z,98.90
2019-01-22T16:10:36.453Z,98.80
2019-01-22T16:13:06.995Z,98.80
2019-01-22T16:15:36.551Z,98.80
2019-01-22T16:18:06.388Z,98.90
2019-01-22T16:20:35.886Z,99.00
2019-01-22T16:23:05.538Z,98.80
2019-01-22T16:25:35.066Z,98.50
2019-01-22T16:28:06.558Z,98.50
2019-01-22T16:30:35.751Z,98.60
2019-01-22T16:33:05.320Z,98.70
2019-01-22T16:35:34.612Z,98.90
2019-01-22T16:38:04.719Z,98.90
2019-01-22T16:40:34.623Z,98.80
2019-01-22T16:43:04.725Z,98.80
2019-01-22T16:45:35.868Z,98.80
2019-01-22T16:48:05.991Z,98.90
2019-01-22T16:50:44.546Z,98.80
2019-01-22T16:53:19.757Z,98.90
2019-01-22T16:55:49.199Z,99.00
2019-01-22T16:58:18.813Z,99.20
2019-01-22T17:00:48.339Z,99.10
2019-01-22T17:03:17.848Z,98.80
2019-01-22T17:05:47.724Z,98.80
2019-01-22T17:08:17.332Z,99.60
2019-01-22T17:10:46.927Z,99.30
2019-01-22T17:13:16.464Z,99.30
2019-01-22T17:15:45.972Z,99.30
2019-01-22T17:18:15.406Z,99.30
2019-01-22T17:20:48.039Z,99.20
2019-01-22T17:23:17.207Z,99.90
2019-01-22T17:25:46.734Z,99.90
2019-01-22T17:28:16.188Z,99.90
2019-01-22T17:30:45.501Z,99.60
2019-01-22T17:33:20.096Z,99.40
2019-01-22T17:35:50.893Z,99.30
2019-01-22T17:38:21.652Z,99.60
2019-01-22T17:40:51.235Z,99.90
2019-01-22T17:43:20.773Z,99.90
2019-01-22T17:45:50.332Z,99.90
2019-01-22T17:48:19.783Z,99.90
2019-01-22T17:50:49.433Z,99.70
2019-01-22T17:53:19.147Z,99.70
2019-01-22T17:55:48.435Z,99.90
2019-01-22T17:58:17.822Z,99.60
2019-01-22T18:00:47.159Z,99.40
2019-01-22T18:03:16.445Z,99.50
2019-01-22T18:05:45.714Z,99.40
2019-01-22T18:08:16.096Z,99.20
2019-01-22T18:10:45.370Z,99.30
2019-01-22T18:13:14.702Z,99.30
2019-01-22T18:15:43.979Z,99.40
2019-01-22T18:18:13.301Z,99.10
2019-01-22T18:20:42.650Z,99.20
2019-01-22T18:23:12.027Z,99.10
2019-01-22T18:25:41.395Z,99.10
2019-01-22T18:28:10.693Z,99.10
2019-01-22T18:30:39.967Z,99.20
2019-01-22T18:33:09.367Z,99.00
2019-01-22T18:35:41.838Z,99.20
2019-01-22T18:38:17.053Z,99.20
2019-01-22T18:40:46.498Z,99.20
2019-01-22T18:43:15.876Z,99.20
2019-01-22T18:45:45.319Z,99.30
2019-01-22T18:48:14.634Z,99.20
2019-01-22T18:50:50.796Z,99.20
2019-01-22T18:53:20.101Z,99.10
2019-01-22T18:55:49.539Z,99.10
2019-01-22T18:58:18.930Z,99.30
2019-01-22T19:00:56.306Z,99.30
2019-01-22T19:03:25.579Z,99.30
2019-01-22T19:05:54.926Z,99.10
2019-01-22T19:08:24.136Z,99.10
2019-01-22T19:10:56.135Z,99.20
2019-01-22T19:13:25.315Z,99.10
2019-01-22T19:15:54.871Z,99.10
2019-01-22T19:18:24.109Z,98.90
2019-01-22T19:20:53.407Z,98.80
2019-01-22T19:23:27.046Z,99.00
2019-01-22T19:25:56.352Z,98.80
2019-01-22T19:28:25.668Z,98.50
2019-01-22T19:30:55.861Z,98.40
2019-01-22T19:33:25.162Z,98.00
2019-01-22T19:35:54.495Z,97.90
2019-01-22T19:38:23.751Z,97.90
2019-01-22T19:40:53.096Z,98.00
2019-01-22T19:43:22.271Z,97.80
2019-01-22T19:45:51.786Z,99.90
2019-01-22T19:48:21.073Z,99.90
2019-01-22T19:50:50.466Z,99.90
2019-01-22T19:53:19.759Z,94.90
2019-01-22T19:55:49.566Z,95.10
2019-01-22T19:58:18.885Z,94.90
2019-01-22T20:00:49.415Z,95.90
2019-01-22T20:03:18.693Z,95.80
2019-01-22T20:05:48.410Z,96.20
2019-01-22T20:08:17.718Z,96.40
2019-01-22T20:10:46.987Z,96.50
2019-01-22T20:13:18.289Z,97.00
2019-01-22T20:15:47.840Z,96.50
2019-01-22T20:18:17.100Z,96.30
2019-01-22T20:20:46.380Z,96.50
2019-01-22T20:23:15.690Z,96.50
2019-01-22T20:25:44.959Z,96.00
2019-01-22T20:28:14.268Z,96.20
2019-01-22T20:30:48.279Z,96.30
2019-01-22T20:33:14.977Z,96.60
2019-01-22T20:35:44.339Z,96.60
2019-01-22T20:38:13.624Z,96.60
2019-01-22T20:40:42.899Z,96.40
2019-01-22T20:43:12.159Z,96.10
2019-01-22T20:45:41.518Z,95.60
2019-01-22T20:48:29.879Z,95.50
2019-01-22T20:50:59.239Z,95.80
2019-01-22T20:53:28.507Z,96.20
2019-01-22T20:55:57.819Z,96.10
2019-01-22T20:58:27.154Z,96.70
2019-01-22T21:00:56.688Z,96.90
2019-01-22T21:03:25.938Z,96.80
2019-01-22T21:05:55.380Z,96.40
2019-01-22T21:08:24.665Z,96.70
2019-01-22T21:10:55.610Z,96.70
2019-01-22T21:13:24.900Z,97.10
2019-01-22T21:15:54.157Z,97.10
2019-01-22T21:18:23.427Z,97.00
2019-01-22T21:20:52.742Z,97.00
2019-01-22T21:23:22.100Z,97.10
2019-01-22T21:25:51.344Z,97.00
2019-01-22T21:28:20.679Z,96.80
2019-01-22T21:30:49.948Z,97.00
2019-01-22T21:33:19.313Z,96.90
2019-01-22T21:35:48.544Z,97.20
2019-01-22T21:38:17.819Z,96.80
2019-01-22T21:40:47.071Z,96.80
2019-01-22T21:43:16.442Z,96.90
2019-01-22T21:45:45.723Z,96.90
2019-01-22T21:48:15.077Z,97.00
2019-01-22T21:50:44.343Z,97.00
2019-01-22T21:53:13.679Z,97.00
2019-01-22T21:55:43.025Z,97.10
2019-01-22T21:58:12.267Z,97.00
2019-01-22T22:00:41.543Z,96.90
2019-01-22T22:03:10.826Z,96.50
2019-01-22T22:05:40.165Z,96.00
2019-01-22T22:08:09.550Z,95.80
2019-01-22T22:10:39.403Z,96.10
2019-01-22T22:13:08.754Z,96.30
2019-01-22T22:15:38.139Z,96.30
2019-01-22T22:18:07.940Z,96.20
2019-01-22T22:20:42.284Z,96.00
2019-01-22T22:23:08.715Z,95.90
2019-01-22T22:25:38.478Z,95.80
2019-01-22T22:28:08.035Z,95.60
2019-01-22T22:30:39.490Z,95.60
2019-01-22T22:33:08.770Z,96.10
2019-01-22T22:35:38.024Z,95.90
2019-01-22T22:38:10.412Z,95.80
2019-01-22T22:40:39.740Z,95.80
2019-01-22T22:43:09.097Z,95.60
2019-01-22T22:45:38.357Z,95.60
2019-01-22T22:48:07.619Z,95.40
2019-01-22T22:50:36.792Z,95.70
2019-01-22T22:53:06.105Z,95.70
2019-01-22T22:55:35.250Z,95.80
2019-01-22T22:58:04.473Z,95.70
2019-01-22T23:00:46.694Z,95.20
2019-01-22T23:03:16.306Z,95.20
2019-01-22T23:05:45.734Z,95.30
2019-01-22T23:08:15.029Z,95.30
2019-01-22T23:10:44.216Z,95.60
2019-01-22T23:13:13.474Z,95.50
2019-01-22T23:15:42.734Z,95.40
2019-01-22T23:18:12.206Z,95.50
2019-01-22T23:20:41.481Z,95.50
2019-01-22T23:23:10.760Z,95.40
2019-01-22T23:25:40.026Z,95.50
2019-01-22T23:28:09.332Z,95.50
2019-01-22T23:30:38.606Z,95.40
2019-01-22T23:33:07.779Z,95.50
2019-01-22T23:35:37.038Z,95.50
2019-01-22T23:38:06.308Z,95.60
2019-01-22T23:40:35.848Z,95.70
2019-01-22T23:43:05.239Z,95.80
2019-01-22T23:45:34.565Z,95.80
2019-01-22T23:48:04.160Z,96.00
2019-01-22T23:50:33.439Z,95.80
2019-01-22T23:53:02.788Z,95.80
2019-01-22T23:55:32.058Z,96.10
2019-01-22T23:58:01.374Z,96.10
